Terminal Aerodrome Forecast
Issued by NWS Grand Rapids, MI

Home | Current Version | Previous Version | Text Only | Print | Product List | Glossary On
Versions: 1 2 3 4 5 6 7 8 9 10 11 12 13 14 15 16 17
000
FTUS43 KGRR 301140
TAFGRR
TAF
KGRR 301140Z 3012/3112 21005KT P6SM VCSH SCT015 OVC070
     FM301500 30006KT P6SM OVC015
     FM301600 33006KT 6SM -RA BR OVC025
     FM301700 33005KT 4SM -RA BR OVC015
     FM301800 01010KT 2SM RA BR OVC007
     FM310000 03012G22KT 4SM -RA BR OVC007
     FM310700 03017G23KT P6SM -RA OVC015=

USA.gov is the U.S. government's official web portal to all federal, state and local government web resources and services.